Long Beach, CA (90815)

9:04 PM PDT on September 18, 2014 (GMT -0700)
East Long Beach (ke6jdc wthr-net) | Change Station
CLOSE
Current Station
Personal Weather Station
Location: Long Beach, CA
Elevation: 45 ft
Nearby Weather Stations

Elev 45 ft 33.79 °N, 118.11 °W | Updated 3 minutes ago

Clear
Clear
70.0 °F
Feels Like 70.0 °F
N
2.0
Wind Variable Wind from NW
Gusts 2.0 mph

Today
High -- | Low -- °F
--% Chance of Precip.
Yesterday
High -- | Low -- °F
Precip. -- in
6:37 AM 6:54 PM
Waning Crescent, 22% visible
Pressure 29.85 in
Visibility 10.0 miles
Clouds Clear
Dew Point 61 °F
Humidity 74%
Rainfall 0.00 in
Snow Depth 0 in , 0 in , 0 in
UV 0 out of 12
Pollen 6.80 out of 12
Ozone Good
Flu Activity Not available.
METAR KLGB 190353Z 30006KT 10SM CLR 22/18 A2985 RMK AO2 SLP107 T02170178

More Conditions Fewer Conditions

Pressure 29.85 in
Visibility 10.0 miles
Clouds Clear
Dew Point 61 °F
Humidity 74%
Rainfall 0.00 in
Snow Depth 0 in , 0 in , 0 in
UV 0 out of 12
Pollen 6.80 out of 12
Ozone Good
Flu Activity Not available.
METAR KLGB 190353Z 30006KT 10SM CLR 22/18 A2985 RMK AO2 SLP107 T02170178

More Conditions Fewer Conditions

10-Day Weather Forecast

Almanac

Astronomy

Sep. 18, 2014 Rise Set
Actual Time 6:37 AM PDT 6:54 PM PDT
Civil Twilight 6:12 AM PDT 7:19 PM PDT
Nautical Twilight 5:43 AM PDT 7:48 PM PDT
Astronomical Twilight 5:14 AM PDT 8:18 PM PDT
Moon 1:44 AM PDT (9/18) 3:39 PM PDT (9/18)
Length of Visible Light 13h 06m
Length of Day
12h 16m
Tomorrow will be 2m 4s shorter.
Waning Crescent, 22% of the Moon is Illuminated
Sep 19
Waning Crescent
Sep 24
New
Oct 1
First Quarter
Oct 8
Full
Oct 15
Last Quarter

Today's Extremes

State Highs State Lows

Community

WunderPhotos

Upload Photos

1,754,556 photos uploaded!

Nearby

Air Quality

  Air Quality AQ Index Pollutant
Yesterday Good
OZONE
Current Good
OZONE
Friday Good
PM10
Friday Good
OZONE
Friday Good
CO
Friday Good
NO2

Snow Depth

Station Depth Elevation
Monitor Pass 0 in 8350 ft
Leavitt Meadows 0 in 7200 ft
Rubicon #2 0 in 7500 ft
Leavitt Lake 0 in 9400 ft
Forestdale Creek 0 in 8029 ft

Earthquake Activity

City Distance Mag. Time & Date
La Quinta, California 97 miles 2.7 8:59 PM PDT
2014-09-15
Minimum magnitude displayed is 2.5.

Coastal Water Temperatures

Place Temperature
Santa Monica Pier 71.1 °F
Los Angeles, CA 66.9 °F
La Jolla, CA 72.0 °F

Nearby Weather Stations